Tropical Cyclones
[Index]
Main Index Home Page Stock Weather Photos Extreme Storms Discussion Storm News and Storm Chasing Reports Tropical Cyclones / Hurricanes / Typhoons Weather Data and Links Wild Fires / Bushfires Weather Observation Techniques Weather Picture Catalogue Tornado Pictures and Reports Stock Video Footage and DVDs for sale
Season 2013-2014 Tropical Cyclone AMARA Track Map
Season 2013-2014 Summaries (Operational Data): [AU] [SIO] [SPAC] [SH]
<<- Previous TC | 2013-2014 Season | Next TC ->>

click for intensity scale information  Lat/long Grid: Show Hide

 Date Labels: Show Hide

Operational Tropical Cyclone Data : JTWC Advisories

Name: AMARA
Number: 1403

11 Dec 2013 18:00 UTC to 29 Dec 2013 00:00 UTC

    date/time    lat    long     hPa   cat  kts
2013-12-11 18    7.5    79.0    1010         15          
2013-12-12 00    7.5    78.5    1010         15          
2013-12-12 06    7.5    78.0    1010         15          
2013-12-12 12    6.5    81.9    1010         15          
2013-12-12 18    6.9    82.5    1010         15          
2013-12-13 00    7.0    82.8    1010         15          
2013-12-13 06    6.8    80.5    1010         20          
2013-12-13 12    6.8    80.8    1010         20          
2013-12-13 18    7.3    79.7    1010         25          
2013-12-14 00    8.0    79.3    1010         25          
2013-12-14 06   11.3    81.8    1000         30          
2013-12-14 12   12.7    81.2    1000         30          
2013-12-14 18   13.7    80.4    1000         30          
2013-12-15 00   14.4    79.3    1000         30          
2013-12-15 06   14.7    78.0    1000         30          
2013-12-15 12   14.6    76.6    1000         30          
2013-12-15 18   14.3    75.8    1000         30          
2013-12-16 00   14.6    74.7    1000         30          
2013-12-16 06   15.1    73.9    1000         30          
2013-12-16 12   15.7    73.1    1000         30          
2013-12-16 18   15.8    72.7     996    1    35          
2013-12-17 00   15.8    72.4     996    1    35          
2013-12-17 06   15.9    72.1     993    1    40          
2013-12-17 12   16.0    71.7     989    1    45          
2013-12-17 18   16.0    71.4     985    2    50          
2013-12-18 00   16.0    71.1     974    3    65          
2013-12-18 06   16.1    70.8     963    3    80          
2013-12-18 12   16.4    70.4     956    4    90          
2013-12-18 18   16.8    69.9     948    4   100          
2013-12-19 00   17.0    69.2     937    5   115          
2013-12-19 06   17.2    68.3     944    4   105          
2013-12-19 12   17.7    67.5     944    4   105          
2013-12-19 18   17.9    66.5     944    4   105          
2013-12-20 00   18.1    65.9     937    5   115          
2013-12-20 06   18.3    65.3     941    5   110          
2013-12-20 12   18.7    64.7     941    5   110          
2013-12-20 18   19.1    64.3     937    5   115          
2013-12-21 00   19.6    64.1     933    5   120          
2013-12-21 06   20.2    64.2     933    5   120          
2013-12-21 12   20.5    64.6     926    5   130          
2013-12-21 18   21.2    65.6     933    5   120          
2013-12-22 00   21.8    66.3     941    5   110          
2013-12-22 06   22.1    66.8     956    4    90          
2013-12-22 12   22.5    67.4     970    3    70          
2013-12-22 18   22.7    67.7     978    2    60          
2013-12-23 00   22.8    67.9     985    2    50          
2013-12-23 06   22.9    68.2     993    1    40          
2013-12-23 12   22.8    68.7     993    1    35          
2013-12-23 18   22.2    69.4    1000         30          
2013-12-24 00   22.2    70.1    1000         30          
2013-12-24 06   23.0    71.3    1000         30          
2013-12-24 12   22.8    72.0    1000         30          
2013-12-24 18   22.6    72.6    1000         30          
2013-12-25 00   22.6    72.8    1000         30          
2013-12-25 06   22.0    71.6    1000         30          
2013-12-25 12   21.5    71.0    1000         30          
2013-12-25 18   21.1    70.3    1000         30          
2013-12-26 00   21.0    69.2    1000         30          
2013-12-26 06   20.4    67.2    1000         30          
2013-12-26 12   20.3    65.5    1000         30          
2013-12-26 18   20.6    65.6    1000         30          
2013-12-27 00   21.4    65.1                 30          
2013-12-27 06   21.8    63.6                 30          
2013-12-27 12   21.7    62.5    1000         30          
2013-12-27 18   21.9    61.8    1004         25          
2013-12-28 00   22.0    61.2    1004         25          
2013-12-28 06   22.3    59.9    1004         25          
2013-12-28 12   22.7    58.8    1004         25          
2013-12-28 18   23.0    57.9    1007         20          
2013-12-29 00   23.0    57.2    1007         20          
Winds are 10-min average.

Tropical cyclone tracks developed by Michael Bath using operational warnings and advisories and Google Maps.


[Australian Severe Weather index] [Copyright Notice] [Email Contacts] [Search This Site] [Privacy Policy]
Document: tropical_cyclone_amara.htm Updated: 2 May 2017